createdAt,value
2023-07-25T00:02:03.480Z,53.23
2023-07-25T00:04:36.323Z,52.94
2023-07-25T00:07:09.510Z,53.16
2023-07-25T00:09:42.436Z,53.35
2023-07-25T00:12:15.140Z,53.35
2023-07-25T00:14:49.403Z,53.24
2023-07-25T00:17:22.310Z,53.21
2023-07-25T00:19:55.068Z,53.37
2023-07-25T00:22:28.029Z,53.19
2023-07-25T00:25:00.731Z,53.01
2023-07-25T00:27:33.794Z,53.36
2023-07-25T00:30:09.648Z,53.10
2023-07-25T00:32:42.701Z,53.26
2023-07-25T00:35:15.629Z,53.00
2023-07-25T00:37:48.441Z,53.25
2023-07-25T00:40:21.644Z,53.03
2023-07-25T00:42:57.891Z,53.12
2023-07-25T00:45:32.168Z,53.58
2023-07-25T00:48:05.775Z,53.33
2023-07-25T00:50:38.722Z,53.08
2023-07-25T00:53:11.796Z,53.12
2023-07-25T00:55:44.802Z,53.34
2023-07-25T00:58:18.409Z,53.32
2023-07-25T01:00:52.791Z,53.29
2023-07-25T01:03:25.870Z,53.12
2023-07-25T01:05:58.937Z,53.31
2023-07-25T01:08:34.480Z,53.12
2023-07-25T01:11:07.508Z,52.90
2023-07-25T01:13:40.178Z,53.14
2023-07-25T01:16:17.412Z,53.02
2023-07-25T01:18:51.140Z,53.32
2023-07-25T01:21:25.473Z,53.24
2023-07-25T01:24:03.323Z,53.13
2023-07-25T01:26:36.208Z,53.14
2023-07-25T01:29:08.994Z,53.00
2023-07-25T01:31:42.116Z,53.35
2023-07-25T01:34:14.996Z,53.32
2023-07-25T01:36:47.896Z,53.25
2023-07-25T01:39:22.126Z,53.24
2023-07-25T01:41:54.963Z,53.26
2023-07-25T01:44:27.861Z,53.08
2023-07-25T01:47:00.747Z,53.45
2023-07-25T01:49:33.812Z,53.31
2023-07-25T01:52:07.069Z,53.34
2023-07-25T01:54:41.170Z,53.42
2023-07-25T01:57:13.989Z,52.79
2023-07-25T01:59:46.894Z,53.16
2023-07-25T02:02:20.234Z,53.22
2023-07-25T02:04:53.065Z,53.32
2023-07-25T02:07:26.982Z,53.38
2023-07-25T02:10:01.533Z,53.11
2023-07-25T02:12:34.385Z,53.28
2023-07-25T02:15:07.662Z,53.19
2023-07-25T02:17:40.582Z,53.06
2023-07-25T02:20:13.429Z,53.02
2023-07-25T02:22:46.917Z,53.32
2023-07-25T02:25:21.657Z,53.01
2023-07-25T02:27:54.714Z,53.30
2023-07-25T02:30:27.625Z,53.07
2023-07-25T02:33:00.914Z,52.89
2023-07-25T02:35:33.979Z,53.46
2023-07-25T02:38:06.576Z,52.94
2023-07-25T02:40:41.673Z,53.23
2023-07-25T02:43:14.446Z,53.32
2023-07-25T02:45:47.302Z,53.20
2023-07-25T02:48:21.621Z,53.39
2023-07-25T02:50:54.284Z,53.52
2023-07-25T02:53:27.554Z,53.55
2023-07-25T02:56:01.753Z,53.26
2023-07-25T02:58:34.587Z,53.79
2023-07-25T03:01:07.433Z,53.52
2023-07-25T03:03:40.397Z,53.84
2023-07-25T03:06:13.607Z,53.88
2023-07-25T03:08:46.484Z,53.99
2023-07-25T03:11:20.588Z,53.76
2023-07-25T03:13:53.434Z,53.27
2023-07-25T03:16:26.899Z,53.68
2023-07-25T03:18:59.786Z,53.43
2023-07-25T03:21:32.748Z,53.51
2023-07-25T03:24:06.553Z,53.57
2023-07-25T03:26:40.956Z,53.82
2023-07-25T03:29:13.770Z,53.60
2023-07-25T03:31:46.573Z,53.67
2023-07-25T03:34:19.566Z,53.58
2023-07-25T03:36:54.476Z,53.76
2023-07-25T03:39:27.382Z,53.67
2023-07-25T03:42:01.386Z,53.81
2023-07-25T03:44:36.622Z,53.73
2023-07-25T03:47:10.107Z,53.85
2023-07-25T03:49:42.904Z,53.73
2023-07-25T03:52:15.767Z,53.69
2023-07-25T03:54:48.553Z,53.79
2023-07-25T03:57:22.683Z,53.93
2023-07-25T03:59:55.601Z,53.58
2023-07-25T04:02:28.788Z,53.66
2023-07-25T04:05:01.971Z,53.66
2023-07-25T04:07:35.831Z,53.66
2023-07-25T04:10:09.584Z,53.59
2023-07-25T04:12:43.758Z,53.19
2023-07-25T04:15:16.616Z,53.42
2023-07-25T04:17:49.386Z,53.45
2023-07-25T04:20:22.371Z,53.76
2023-07-25T04:22:56.239Z,53.55
2023-07-25T04:25:31.071Z,53.54
2023-07-25T04:28:05.422Z,53.23
2023-07-25T04:30:38.439Z,53.45
2023-07-25T04:33:11.102Z,53.27
2023-07-25T04:35:46.396Z,53.42
2023-07-25T04:38:19.615Z,53.43
2023-07-25T04:40:53.562Z,53.47
2023-07-25T04:43:28.017Z,53.33
2023-07-25T04:46:00.958Z,53.30
2023-07-25T04:48:33.658Z,52.98
2023-07-25T04:51:06.488Z,53.14
2023-07-25T04:53:39.524Z,53.17
2023-07-25T04:56:12.189Z,53.29
2023-07-25T04:58:46.882Z,52.89
2023-07-25T05:01:19.885Z,52.89
2023-07-25T05:03:52.602Z,52.84
2023-07-25T05:06:25.513Z,52.59
2023-07-25T05:09:00.631Z,52.97
2023-07-25T05:11:34.113Z,52.81
2023-07-25T05:14:08.413Z,52.96
2023-07-25T05:16:41.204Z,52.88
2023-07-25T05:19:13.998Z,52.81
2023-07-25T05:21:46.888Z,52.91
2023-07-25T05:24:19.895Z,52.71
2023-07-25T05:26:52.686Z,52.53
2023-07-25T05:29:26.879Z,52.54
2023-07-25T05:32:01.459Z,52.79
2023-07-25T05:34:34.287Z,52.85
2023-07-25T05:37:07.609Z,52.60
2023-07-25T05:39:40.514Z,52.92
2023-07-25T05:42:13.441Z,52.68
2023-07-25T05:44:47.696Z,52.85
2023-07-25T05:47:20.456Z,52.63
2023-07-25T05:49:53.420Z,52.61
2023-07-25T05:52:26.397Z,52.58
2023-07-25T05:54:59.089Z,52.50
2023-07-25T05:57:31.905Z,52.74
2023-07-25T06:00:08.040Z,52.53
2023-07-25T06:02:41.209Z,52.39
2023-07-25T06:05:14.285Z,52.76
2023-07-25T06:07:47.217Z,52.46
2023-07-25T06:10:19.938Z,52.45
2023-07-25T06:12:53.021Z,52.40
2023-07-25T06:15:29.560Z,52.28
2023-07-25T06:18:02.689Z,52.20
2023-07-25T06:20:38.508Z,52.26
2023-07-25T06:23:11.427Z,52.22
2023-07-25T06:25:46.348Z,52.10
2023-07-25T06:28:19.957Z,51.77
2023-07-25T06:30:55.778Z,51.39
2023-07-25T06:33:30.766Z,51.84
2023-07-25T06:36:03.646Z,51.50
2023-07-25T06:38:36.577Z,51.46
2023-07-25T06:41:09.311Z,51.45
2023-07-25T06:43:42.150Z,51.20
2023-07-25T06:46:17.191Z,50.65
2023-07-25T06:48:50.237Z,50.79
2023-07-25T06:51:22.996Z,50.75
2023-07-25T06:53:55.794Z,50.39
2023-07-25T06:56:29.042Z,50.94
2023-07-25T06:59:01.910Z,50.58
2023-07-25T07:01:36.235Z,50.82
2023-07-25T07:04:09.085Z,50.98
2023-07-25T07:06:42.023Z,50.74
2023-07-25T07:09:14.916Z,50.11
2023-07-25T07:11:47.707Z,51.13
2023-07-25T07:14:20.753Z,50.71
2023-07-25T07:16:59.483Z,50.56
2023-07-25T07:19:32.511Z,49.96
2023-07-25T07:22:05.637Z,50.44
2023-07-25T07:24:38.579Z,50.24
2023-07-25T07:27:11.470Z,50.80
2023-07-25T07:29:45.359Z,50.09
2023-07-25T07:32:19.635Z,51.40
2023-07-25T07:34:52.441Z,51.40
2023-07-25T07:37:25.426Z,50.97
2023-07-25T07:39:58.110Z,50.30
2023-07-25T07:42:30.960Z,50.20
2023-07-25T07:45:06.169Z,50.31
2023-07-25T07:47:40.379Z,49.81
2023-07-25T07:50:13.197Z,49.30
2023-07-25T07:52:49.684Z,49.94
2023-07-25T07:55:24.579Z,50.56
2023-07-25T07:58:01.281Z,50.80
2023-07-25T08:00:34.369Z,50.69
2023-07-25T08:03:08.682Z,50.29
2023-07-25T08:05:41.666Z,50.51
2023-07-25T08:08:17.649Z,50.29
2023-07-25T08:10:50.755Z,49.55
2023-07-25T08:13:25.347Z,49.39
2023-07-25T08:16:01.305Z,48.69
2023-07-25T08:18:35.517Z,48.95
2023-07-25T08:21:08.360Z,48.89
2023-07-25T08:23:41.229Z,48.34
2023-07-25T08:26:14.183Z,49.09
2023-07-25T08:28:48.062Z,48.53
2023-07-25T08:31:20.998Z,48.32
2023-07-25T08:33:57.037Z,48.49
2023-07-25T08:36:32.870Z,48.92
2023-07-25T08:39:05.797Z,49.34
2023-07-25T08:41:41.289Z,49.07
2023-07-25T08:44:16.907Z,48.15
2023-07-25T08:46:53.181Z,48.47
2023-07-25T08:49:32.884Z,49.26
2023-07-25T08:52:07.862Z,49.94
2023-07-25T08:54:45.695Z,50.16
2023-07-25T08:57:20.720Z,49.06
2023-07-25T08:59:55.160Z,49.80
2023-07-25T09:02:28.357Z,49.80
2023-07-25T09:05:02.871Z,48.33
2023-07-25T09:07:36.405Z,48.71
2023-07-25T09:10:10.083Z,47.73
2023-07-25T09:12:43.064Z,45.87
2023-07-25T09:15:16.111Z,47.19
2023-07-25T09:17:54.398Z,47.22
2023-07-25T09:20:29.100Z,46.40
2023-07-25T09:23:03.791Z,45.58
2023-07-25T09:25:37.931Z,45.28
2023-07-25T09:28:10.799Z,45.56
2023-07-25T09:30:48.293Z,45.34
2023-07-25T09:33:27.453Z,45.74
2023-07-25T09:36:01.656Z,46.28
2023-07-25T09:38:34.799Z,45.45
2023-07-25T09:41:08.609Z,45.69
2023-07-25T09:43:41.716Z,46.29
2023-07-25T09:46:14.684Z,44.30
2023-07-25T09:48:49.458Z,44.54
2023-07-25T09:51:23.974Z,45.39
2023-07-25T09:53:57.616Z,44.82
2023-07-25T09:56:30.930Z,45.75
2023-07-25T09:59:06.954Z,44.87
2023-07-25T10:01:41.953Z,45.11
2023-07-25T10:04:18.872Z,45.28
2023-07-25T10:06:55.966Z,43.45
2023-07-25T10:09:30.513Z,43.40
2023-07-25T10:12:05.116Z,45.11
2023-07-25T10:14:39.066Z,43.12
2023-07-25T10:17:13.801Z,42.60
2023-07-25T10:19:49.121Z,42.63
2023-07-25T10:22:37.088Z,43.50
2023-07-25T10:25:12.076Z,43.99
2023-07-25T10:27:45.494Z,43.91
2023-07-25T10:30:25.461Z,42.11
2023-07-25T10:33:02.285Z,43.46
2023-07-25T10:35:53.063Z,44.69
2023-07-25T10:38:33.848Z,44.25
2023-07-25T10:41:16.576Z,41.41
2023-07-25T10:43:59.595Z,43.01
2023-07-25T10:46:35.376Z,42.30
2023-07-25T10:49:16.567Z,43.42
2023-07-25T10:51:54.228Z,42.22
2023-07-25T10:54:32.899Z,43.02
2023-07-25T10:57:18.440Z,41.85
2023-07-25T11:00:01.971Z,41.46
2023-07-25T11:02:37.527Z,42.10
2023-07-25T11:05:22.526Z,41.26
2023-07-25T11:07:56.517Z,41.29
2023-07-25T11:10:30.881Z,40.62
2023-07-25T11:13:03.740Z,40.32
2023-07-25T11:15:47.400Z,41.26
2023-07-25T11:18:22.582Z,41.03
2023-07-25T11:21:00.435Z,41.48
2023-07-25T11:23:33.423Z,39.74
2023-07-25T11:26:08.591Z,40.85
2023-07-25T11:28:41.743Z,40.63
2023-07-25T11:31:22.701Z,40.67
2023-07-25T11:33:55.694Z,39.55
2023-07-25T11:36:28.804Z,39.18
2023-07-25T11:39:03.917Z,40.82
2023-07-25T11:41:38.432Z,40.42
2023-07-25T11:44:17.092Z,40.43
2023-07-25T11:46:54.224Z,39.77
2023-07-25T11:49:47.661Z,39.88
2023-07-25T11:52:21.873Z,39.83
2023-07-25T11:54:55.220Z,38.36
2023-07-25T11:57:30.918Z,38.90
2023-07-25T12:00:07.451Z,39.03
2023-07-25T12:02:41.849Z,38.87
2023-07-25T12:05:28.387Z,40.30
2023-07-25T12:08:04.446Z,38.92
2023-07-25T12:10:38.242Z,38.70
2023-07-25T12:13:13.173Z,38.96
2023-07-25T12:15:53.630Z,38.94
2023-07-25T12:18:30.553Z,37.64
2023-07-25T12:21:05.244Z,37.54
2023-07-25T12:23:41.873Z,38.93
2023-07-25T12:26:15.908Z,38.94
2023-07-25T12:28:55.590Z,38.17
2023-07-25T12:31:29.594Z,37.67
2023-07-25T12:34:02.515Z,37.79
2023-07-25T12:36:35.520Z,37.88
2023-07-25T12:39:09.297Z,36.85
2023-07-25T12:41:44.457Z,37.04
2023-07-25T12:44:19.101Z,36.95
2023-07-25T12:46:52.019Z,37.22
2023-07-25T12:49:25.069Z,37.42
2023-07-25T12:52:00.253Z,37.05
2023-07-25T12:54:33.590Z,36.28
2023-07-25T12:57:06.981Z,36.87
2023-07-25T12:59:41.309Z,35.93
2023-07-25T13:02:14.182Z,36.90
2023-07-25T13:04:47.162Z,37.13
2023-07-25T13:07:19.980Z,36.91
2023-07-25T13:09:57.508Z,35.89
2023-07-25T13:12:30.435Z,36.37
2023-07-25T13:15:05.796Z,35.98
2023-07-25T13:23:33.664Z,36.35
2023-07-25T13:26:06.613Z,37.09
2023-07-25T13:28:39.618Z,37.51
2023-07-25T13:31:13.996Z,36.67
2023-07-25T13:33:48.067Z,37.04
2023-07-25T13:36:21.009Z,37.19
2023-07-25T13:38:54.597Z,36.67
2023-07-25T13:41:27.660Z,36.15
2023-07-25T13:44:00.655Z,32.71
2023-07-25T13:46:35.023Z,34.87
2023-07-25T13:49:08.614Z,34.03
2023-07-25T13:51:41.464Z,35.94
2023-07-25T13:54:15.094Z,34.67
2023-07-25T13:57:03.257Z,33.82
2023-07-25T13:59:36.121Z,34.43
2023-07-25T14:02:10.853Z,34.49
2023-07-25T14:04:43.742Z,34.45
2023-07-25T14:07:17.288Z,33.98
2023-07-25T14:09:50.116Z,34.13
2023-07-25T14:12:24.174Z,34.27
2023-07-25T14:14:59.486Z,34.68
2023-07-25T14:17:34.745Z,34.39
2023-07-25T14:20:10.046Z,33.23
2023-07-25T14:22:44.059Z,33.62
2023-07-25T14:25:17.244Z,33.95
2023-07-25T14:27:51.458Z,33.23
2023-07-25T14:30:24.553Z,34.02
2023-07-25T14:32:59.873Z,33.54
2023-07-25T14:35:32.954Z,34.35
2023-07-25T14:38:08.275Z,33.98
2023-07-25T14:40:41.999Z,33.68
2023-07-25T14:43:17.672Z,33.91
2023-07-25T14:45:50.680Z,34.01
2023-07-25T14:48:26.835Z,33.33
2023-07-25T14:51:03.601Z,33.17
2023-07-25T14:53:36.992Z,33.70
2023-07-25T14:56:15.252Z,33.30
2023-07-25T14:58:48.482Z,33.56
2023-07-25T15:01:21.821Z,33.32
2023-07-25T15:03:58.905Z,33.30
2023-07-25T15:06:31.993Z,32.63
2023-07-25T15:09:05.692Z,33.49
2023-07-25T15:17:23.069Z,33.22
2023-07-25T15:29:57.230Z,33.60
2023-07-25T15:32:31.640Z,34.58
2023-07-25T15:37:57.285Z,34.85
2023-07-25T15:44:00.407Z,35.96
2023-07-25T15:49:42.034Z,35.83
2023-07-25T15:52:16.497Z,36.34
2023-07-25T15:54:50.822Z,35.89
2023-07-25T15:57:23.997Z,36.38
2023-07-25T15:59:56.897Z,36.33
2023-07-25T16:02:29.818Z,36.70
2023-07-25T16:05:08.381Z,35.87
2023-07-25T16:07:42.217Z,36.46
2023-07-25T16:10:16.756Z,36.15
2023-07-25T16:12:49.764Z,35.96
2023-07-25T16:15:23.886Z,36.03
2023-07-25T16:17:56.995Z,35.52
2023-07-25T16:20:29.869Z,35.18
2023-07-25T16:23:02.994Z,35.62
2023-07-25T16:25:37.520Z,34.58
2023-07-25T16:28:10.352Z,35.37
2023-07-25T16:30:43.991Z,35.01
2023-07-25T16:33:22.869Z,35.51
2023-07-25T16:35:56.987Z,35.40
2023-07-25T16:38:34.540Z,34.83
2023-07-25T16:41:10.504Z,34.96
2023-07-25T16:43:43.358Z,35.12
2023-07-25T16:46:16.309Z,35.13
2023-07-25T16:48:49.274Z,35.40
2023-07-25T16:51:22.374Z,34.95
2023-07-25T16:53:55.457Z,35.55
2023-07-25T16:56:30.072Z,34.67
2023-07-25T16:59:03.729Z,34.93
2023-07-25T17:01:37.070Z,35.04
2023-07-25T17:04:10.173Z,34.97
2023-07-25T17:06:43.108Z,35.08
2023-07-25T17:09:16.261Z,35.48
2023-07-25T17:11:50.837Z,35.68
2023-07-25T17:14:23.746Z,35.67
2023-07-25T17:16:56.815Z,35.66
2023-07-25T17:19:30.678Z,35.15
2023-07-25T17:22:03.910Z,35.45
2023-07-25T17:24:37.930Z,35.21
2023-07-25T17:27:12.284Z,35.24
2023-07-25T17:29:45.504Z,35.64
2023-07-25T17:32:19.883Z,35.35
2023-07-25T17:34:55.248Z,35.49
2023-07-25T17:37:28.419Z,35.59
2023-07-25T17:40:24.005Z,36.14
2023-07-25T17:42:58.711Z,36.14
2023-07-25T17:45:31.641Z,36.05
2023-07-25T17:48:16.952Z,36.04
2023-07-25T17:53:52.333Z,36.04
2023-07-25T17:56:25.489Z,36.23
2023-07-25T17:58:59.942Z,36.64
2023-07-25T18:01:33.265Z,36.41
2023-07-25T18:07:24.907Z,37.05
2023-07-25T18:09:58.072Z,36.96
2023-07-25T18:15:26.797Z,37.11
2023-07-25T18:18:01.143Z,37.05
2023-07-25T18:20:34.534Z,37.07
2023-07-25T18:23:07.280Z,36.85
2023-07-25T18:25:40.350Z,37.35
2023-07-25T18:28:13.354Z,37.32
2023-07-25T18:30:48.544Z,37.48
2023-07-25T18:33:21.444Z,37.24
2023-07-25T18:35:54.364Z,37.71
2023-07-25T18:38:27.034Z,38.35
2023-07-25T18:41:00.040Z,38.13
2023-07-25T18:43:33.162Z,38.25
2023-07-25T18:46:07.352Z,37.79
2023-07-25T18:48:40.642Z,38.26
2023-07-25T18:51:13.648Z,37.97
2023-07-25T18:53:46.695Z,38.14
2023-07-25T18:56:19.490Z,37.90
2023-07-25T18:58:52.181Z,38.42
2023-07-25T19:01:27.538Z,37.93
2023-07-25T19:04:00.924Z,38.46
2023-07-25T19:06:34.252Z,38.42
2023-07-25T19:09:08.457Z,38.17
2023-07-25T19:11:41.297Z,38.43
2023-07-25T19:14:14.193Z,38.81
2023-07-25T19:16:48.541Z,38.49
2023-07-25T19:19:21.446Z,38.37
2023-07-25T19:21:54.779Z,39.08
2023-07-25T19:24:27.961Z,38.77
2023-07-25T19:27:01.941Z,39.08
2023-07-25T19:29:34.855Z,38.57
2023-07-25T19:32:11.149Z,38.81
2023-07-25T19:34:44.039Z,38.76
2023-07-25T19:37:16.934Z,38.78
2023-07-25T19:39:49.859Z,39.40
2023-07-25T19:42:26.443Z,39.46
2023-07-25T19:44:59.487Z,39.23
2023-07-25T19:47:34.168Z,39.33
2023-07-25T19:50:08.100Z,39.21
2023-07-25T19:52:41.338Z,39.59
2023-07-25T19:55:14.512Z,39.40
2023-07-25T19:57:47.547Z,39.14
2023-07-25T20:00:20.568Z,39.82
2023-07-25T20:02:57.199Z,39.32
2023-07-25T20:05:30.152Z,39.36
2023-07-25T20:08:03.186Z,39.41
2023-07-25T20:10:36.092Z,39.82
2023-07-25T20:13:08.830Z,39.71
2023-07-25T20:15:41.833Z,39.80
2023-07-25T20:18:16.347Z,39.68
2023-07-25T20:20:57.928Z,40.03
2023-07-25T20:23:31.120Z,39.84
2023-07-25T20:26:04.471Z,39.96
2023-07-25T20:28:37.388Z,40.14
2023-07-25T20:31:10.180Z,40.38
2023-07-25T20:33:44.896Z,40.17
2023-07-25T20:36:17.681Z,40.34
2023-07-25T20:38:51.563Z,40.17
2023-07-25T20:41:24.724Z,40.20
2023-07-25T20:43:58.637Z,40.26
2023-07-25T20:46:34.147Z,40.58
2023-07-25T20:49:08.686Z,40.38
2023-07-25T20:51:42.552Z,40.53
2023-07-25T20:54:15.551Z,40.51
2023-07-25T20:56:48.427Z,40.54
2023-07-25T20:59:21.684Z,40.38
2023-07-25T21:01:55.624Z,40.79
2023-07-25T21:04:30.131Z,41.01
2023-07-25T21:07:04.090Z,40.96
2023-07-25T21:09:36.748Z,40.95
2023-07-25T21:12:12.528Z,41.36
2023-07-25T21:14:46.430Z,41.10
2023-07-25T21:17:19.129Z,41.30
2023-07-25T21:19:53.727Z,41.53
2023-07-25T21:22:26.563Z,41.58
2023-07-25T21:24:59.489Z,41.43
2023-07-25T21:27:32.322Z,41.46
2023-07-25T21:30:06.058Z,41.76
2023-07-25T21:32:38.932Z,41.65
2023-07-25T21:35:13.307Z,41.42
2023-07-25T21:37:46.272Z,41.53
2023-07-25T21:40:19.023Z,41.95
2023-07-25T21:42:53.028Z,41.78
2023-07-25T21:45:26.019Z,42.00
2023-07-25T21:47:58.899Z,41.91
2023-07-25T21:50:33.857Z,42.08
2023-07-25T21:53:06.698Z,42.10
2023-07-25T21:55:39.669Z,42.16
2023-07-25T21:58:12.610Z,42.39
2023-07-25T22:00:45.289Z,42.22
2023-07-25T22:03:18.126Z,42.39
2023-07-25T22:05:52.581Z,42.31
2023-07-25T22:08:26.329Z,42.43
2023-07-25T22:10:59.136Z,42.46
2023-07-25T22:13:31.963Z,42.83
2023-07-25T22:16:05.112Z,42.80
2023-07-25T22:18:37.952Z,42.89
2023-07-25T22:21:12.218Z,43.01
2023-07-25T22:23:44.986Z,43.04
2023-07-25T22:26:17.750Z,43.12
2023-07-25T22:28:50.884Z,43.21
2023-07-25T22:31:23.787Z,43.38
2023-07-25T22:33:56.452Z,43.52
2023-07-25T22:36:31.156Z,43.58
2023-07-25T22:39:04.210Z,43.72
2023-07-25T22:41:37.162Z,43.54
2023-07-25T22:44:10.056Z,43.62
2023-07-25T22:46:42.941Z,43.65
2023-07-25T22:49:15.715Z,43.67
2023-07-25T22:51:49.954Z,43.75
2023-07-25T22:54:23.064Z,44.05
2023-07-25T22:56:56.836Z,43.71
2023-07-25T22:59:30.881Z,43.78
2023-07-25T23:02:04.760Z,43.82
2023-07-25T23:04:37.949Z,44.06
2023-07-25T23:07:12.255Z,43.83
2023-07-25T23:09:45.052Z,44.13
2023-07-25T23:12:18.010Z,44.03
2023-07-25T23:14:51.123Z,43.97
2023-07-25T23:17:24.300Z,44.17
2023-07-25T23:19:57.286Z,44.26
2023-07-25T23:22:31.529Z,44.12
2023-07-25T23:25:04.880Z,44.39
2023-07-25T23:27:37.664Z,44.59
2023-07-25T23:30:11.392Z,44.68
2023-07-25T23:32:44.547Z,44.47
2023-07-25T23:35:17.908Z,44.41
2023-07-25T23:37:52.320Z,44.50
2023-07-25T23:40:25.399Z,45.05
2023-07-25T23:42:58.322Z,44.86
2023-07-25T23:45:31.125Z,44.75
2023-07-25T23:48:04.031Z,44.77
2023-07-25T23:50:37.094Z,45.01
2023-07-25T23:53:11.607Z,44.74
2023-07-25T23:55:44.381Z,45.06
2023-07-25T23:58:17.207Z,44.94
